createdAt,value
2023-03-28T00:00:54.574Z,13.88
2023-03-28T00:06:01.626Z,6.85
2023-03-28T00:11:09.589Z,3.10
2023-03-28T00:16:14.723Z,6.35
2023-03-28T00:21:24.698Z,4.82
2023-03-28T00:26:32.396Z,4.90
2023-03-28T00:31:39.678Z,3.92
2023-03-28T00:36:45.201Z,6.53
2023-03-28T00:41:49.490Z,3.28
2023-03-28T00:46:53.893Z,5.63
2023-03-28T00:52:03.970Z,6.45
2023-03-28T00:57:10.825Z,5.22
2023-03-28T01:02:15.010Z,3.85
2023-03-28T01:07:20.781Z,5.30
2023-03-28T01:12:25.198Z,5.13
2023-03-28T01:17:30.933Z,5.82
2023-03-28T01:23:01.964Z,5.10
2023-03-28T01:28:17.294Z,5.82
2023-03-28T01:34:02.710Z,4.47
2023-03-28T01:39:19.532Z,5.40
2023-03-28T01:44:30.657Z,4.63
2023-03-28T01:49:39.546Z,4.35
2023-03-28T01:54:53.623Z,4.18
2023-03-28T02:00:04.178Z,4.53
2023-03-28T02:05:15.602Z,5.32
2023-03-28T02:10:27.080Z,4.88
2023-03-28T02:15:55.863Z,2.70
2023-03-28T02:21:43.570Z,4.47
2023-03-28T02:27:12.334Z,4.77
2023-03-28T02:37:40.067Z,2.88
2023-03-28T02:43:20.094Z,9.18
2023-03-28T02:48:38.167Z,5.07
2023-03-28T02:53:53.103Z,3.67
2023-03-28T02:59:05.920Z,5.47
2023-03-28T03:04:12.318Z,3.92
2023-03-28T03:09:20.567Z,4.00
2023-03-28T03:14:30.093Z,3.58
2023-03-28T03:19:54.247Z,5.65
2023-03-28T03:25:07.034Z,7.15
2023-03-28T03:30:25.628Z,5.20
2023-03-28T03:35:50.845Z,5.97
2023-03-28T03:40:59.462Z,8.65
2023-03-28T03:46:09.047Z,7.13
2023-03-28T03:51:15.121Z,8.07
2023-03-28T03:56:23.463Z,8.13
2023-03-28T04:01:39.801Z,9.35
2023-03-28T04:07:05.188Z,11.85
2023-03-28T04:12:14.903Z,14.95
2023-03-28T04:17:30.472Z,9.85
2023-03-28T04:22:46.334Z,10.27
2023-03-28T04:27:56.169Z,10.48
2023-03-28T04:33:07.773Z,10.98
2023-03-28T04:38:21.442Z,12.07
2023-03-28T04:48:44.128Z,11.80
2023-03-28T04:53:49.529Z,10.82
2023-03-28T04:59:15.120Z,12.68
2023-03-28T05:04:26.398Z,9.68
2023-03-28T05:09:34.022Z,14.95
2023-03-28T05:14:41.253Z,16.97
2023-03-28T05:19:55.762Z,12.80
2023-03-28T05:25:05.042Z,14.02
2023-03-28T05:30:14.186Z,19.88
2023-03-28T05:35:24.090Z,12.73
2023-03-28T05:40:30.889Z,13.60
2023-03-28T05:45:37.971Z,15.68
2023-03-28T05:51:09.601Z,13.55
2023-03-28T05:56:17.208Z,12.85
2023-03-28T06:01:29.613Z,15.73
2023-03-28T06:06:42.699Z,17.77
2023-03-28T06:11:49.405Z,30.13
2023-03-28T06:16:55.350Z,23.88
2023-03-28T06:22:03.824Z,13.88
2023-03-28T06:27:12.157Z,12.82
2023-03-28T06:32:20.083Z,20.13
2023-03-28T06:37:28.070Z,32.45
2023-03-28T06:42:39.914Z,21.30
2023-03-28T06:47:59.656Z,34.20
2023-03-28T06:53:24.517Z,25.27
2023-03-28T06:58:31.249Z,27.52
2023-03-28T07:03:51.621Z,29.85
2023-03-28T07:09:06.328Z,28.33
2023-03-28T07:14:22.910Z,25.65
2023-03-28T07:19:29.695Z,26.85
2023-03-28T07:24:36.953Z,41.38
2023-03-28T07:29:50.157Z,21.02
2023-03-28T07:34:58.399Z,26.20
2023-03-28T07:40:11.445Z,30.40
2023-03-28T07:45:21.042Z,26.02
2023-03-28T07:50:28.950Z,22.98
2023-03-28T08:00:48.520Z,27.65
2023-03-28T08:06:31.617Z,19.27
2023-03-28T08:11:42.810Z,21.52
2023-03-28T08:16:49.692Z,17.48
2023-03-28T08:21:59.333Z,16.77
2023-03-28T08:27:09.696Z,15.32
2023-03-28T08:32:17.483Z,17.23
2023-03-28T08:37:25.666Z,17.45
2023-03-28T08:42:59.630Z,16.83
2023-03-28T08:48:19.476Z,21.23
2023-03-28T08:53:34.638Z,18.73
2023-03-28T08:58:57.652Z,12.85
2023-03-28T09:04:03.528Z,18.92
2023-03-28T09:09:34.252Z,15.73
2023-03-28T09:15:31.638Z,13.45
2023-03-28T09:20:45.736Z,10.02
2023-03-28T09:26:36.136Z,9.90
2023-03-28T09:31:52.144Z,8.98
2023-03-28T09:37:08.349Z,7.88
2023-03-28T09:42:28.244Z,7.93
2023-03-28T09:47:57.621Z,8.15
2023-03-28T09:53:07.996Z,5.93
2023-03-28T09:58:17.843Z,5.97
2023-03-28T10:03:56.906Z,8.32
2023-03-28T10:09:23.964Z,5.30
2023-03-28T10:14:37.018Z,9.75
2023-03-28T10:19:48.984Z,8.50
2023-03-28T10:25:02.566Z,5.72
2023-03-28T10:30:19.364Z,7.10
2023-03-28T10:35:31.264Z,7.85
2023-03-28T10:41:04.954Z,7.90
2023-03-28T10:46:33.027Z,8.25
2023-03-28T10:51:57.879Z,7.95
2023-03-28T10:57:15.361Z,10.43
2023-03-28T11:03:06.432Z,6.95
2023-03-28T11:08:37.764Z,6.30
2023-03-28T11:13:57.018Z,6.03
2023-03-28T11:19:16.071Z,7.07
2023-03-28T11:24:41.274Z,10.73
2023-03-28T11:30:14.979Z,7.47
2023-03-28T11:35:34.595Z,10.02
2023-03-28T11:40:52.700Z,3.17
2023-03-28T11:46:14.772Z,5.00
2023-03-28T11:51:27.666Z,8.10
2023-03-28T12:02:01.192Z,4.53
2023-03-28T12:07:15.946Z,3.53
2023-03-28T12:12:30.712Z,2.33
2023-03-28T12:17:39.031Z,2.53
2023-03-28T12:22:50.888Z,3.03
2023-03-28T12:28:14.019Z,4.38
2023-03-28T12:33:30.065Z,6.10
2023-03-28T12:38:55.835Z,6.50
2023-03-28T12:44:14.922Z,4.63
2023-03-28T12:49:37.139Z,8.50
2023-03-28T12:55:01.717Z,5.65
2023-03-28T13:00:36.173Z,5.00
2023-03-28T13:06:09.064Z,4.75
2023-03-28T13:11:25.304Z,4.53
2023-03-28T13:16:46.574Z,3.72
2023-03-28T13:21:56.264Z,5.55
2023-03-28T13:27:03.590Z,6.90
2023-03-28T13:32:17.151Z,4.55
2023-03-28T13:37:24.799Z,7.38
2023-03-28T13:42:33.197Z,6.22
2023-03-28T13:47:43.367Z,9.32
2023-03-28T13:52:48.822Z,7.70
2023-03-28T13:57:55.765Z,8.18
2023-03-28T14:03:07.214Z,9.82
2023-03-28T14:08:25.877Z,9.18
2023-03-28T14:13:34.277Z,6.82
2023-03-28T14:18:45.456Z,6.72
2023-03-28T14:24:02.946Z,6.60
2023-03-28T14:29:12.190Z,6.43
2023-03-28T14:34:25.597Z,5.18
2023-03-28T14:39:32.389Z,5.25
2023-03-28T14:44:41.844Z,7.72
2023-03-28T14:49:49.146Z,10.32
2023-03-28T14:54:55.340Z,6.40
2023-03-28T15:00:01.282Z,5.78
2023-03-28T15:05:12.332Z,3.67
2023-03-28T15:10:24.554Z,5.00
2023-03-28T15:15:31.509Z,7.32
2023-03-28T15:20:40.998Z,5.60
2023-03-28T15:25:48.382Z,7.07
2023-03-28T15:30:58.184Z,7.45
2023-03-28T15:36:09.751Z,9.63
2023-03-28T15:41:23.115Z,6.68
2023-03-28T15:46:32.274Z,11.52
2023-03-28T15:51:50.917Z,4.93
2023-03-28T15:56:57.554Z,12.55
2023-03-28T16:02:22.564Z,6.47
2023-03-28T16:07:34.588Z,3.90
2023-03-28T16:12:39.058Z,12.10
2023-03-28T16:18:07.332Z,7.20
2023-03-28T16:23:22.609Z,6.05
2023-03-28T16:28:27.238Z,11.70
2023-03-28T16:33:31.518Z,6.53
2023-03-28T16:38:38.211Z,14.70
2023-03-28T16:43:42.651Z,8.70
2023-03-28T16:48:46.971Z,10.55
2023-03-28T16:53:53.428Z,9.10
2023-03-28T16:58:57.858Z,11.15
2023-03-28T17:04:02.094Z,12.50
2023-03-28T17:09:07.801Z,18.30
2023-03-28T17:19:19.433Z,8.55
2023-03-28T17:24:25.104Z,8.43
2023-03-28T17:29:29.533Z,7.05
2023-03-28T17:34:35.957Z,10.50
2023-03-28T17:39:42.568Z,14.93
2023-03-28T17:44:47.129Z,10.77
2023-03-28T17:49:51.629Z,7.18
2023-03-28T17:54:58.082Z,8.10
2023-03-28T18:00:02.580Z,8.60
2023-03-28T18:05:17.207Z,15.63
2023-03-28T18:10:27.564Z,15.43
2023-03-28T18:15:31.748Z,13.13
2023-03-28T18:20:36.268Z,13.68
2023-03-28T18:25:41.765Z,16.08
2023-03-28T18:30:46.195Z,17.20
2023-03-28T18:35:51.368Z,19.58
2023-03-28T18:40:57.197Z,15.88
2023-03-28T18:46:02.101Z,15.43
2023-03-28T18:51:07.784Z,13.38
2023-03-28T18:56:13.783Z,12.23
2023-03-28T19:01:18.599Z,10.82
2023-03-28T19:06:22.910Z,12.00
2023-03-28T19:11:28.667Z,10.80
2023-03-28T19:16:33.589Z,19.58
2023-03-28T19:21:38.151Z,15.23
2023-03-28T19:26:43.819Z,15.70
2023-03-28T19:31:47.918Z,12.50
2023-03-28T19:36:52.226Z,14.20
2023-03-28T19:41:57.813Z,11.25
2023-03-28T19:47:02.445Z,11.73
2023-03-28T19:52:09.927Z,13.95
2023-03-28T19:57:15.715Z,18.83
2023-03-28T20:07:24.758Z,14.23
2023-03-28T20:12:30.836Z,8.38
2023-03-28T20:17:34.934Z,18.10
2023-03-28T20:22:39.107Z,13.23
2023-03-28T20:27:44.582Z,13.27
2023-03-28T20:32:49.621Z,13.55
2023-03-28T20:37:53.921Z,11.30
2023-03-28T20:43:01.972Z,10.63
2023-03-28T20:48:07.686Z,15.52
2023-03-28T20:53:11.860Z,15.48
2023-03-28T20:58:17.807Z,13.15
2023-03-28T21:03:21.968Z,9.55
2023-03-28T21:08:28.014Z,9.57
2023-03-28T21:13:33.544Z,6.70
2023-03-28T21:18:38.413Z,12.10
2023-03-28T21:23:42.593Z,12.60
2023-03-28T21:28:48.906Z,10.95
2023-03-28T21:33:53.885Z,11.55
2023-03-28T21:38:58.046Z,12.33
2023-03-28T21:44:03.605Z,12.35
2023-03-28T21:49:07.947Z,9.35
2023-03-28T21:54:12.078Z,11.57
2023-03-28T21:59:17.659Z,10.10
2023-03-28T22:04:22.117Z,9.82
2023-03-28T22:09:28.058Z,6.75
2023-03-28T22:14:33.634Z,7.80
2023-03-28T22:19:37.985Z,7.30
2023-03-28T22:24:42.213Z,9.20
2023-03-28T22:29:47.727Z,9.20
2023-03-28T22:39:55.944Z,9.38
2023-03-28T22:45:01.424Z,10.00
2023-03-28T22:50:07.821Z,9.93
2023-03-28T22:55:13.550Z,15.10
2023-03-28T23:00:21.661Z,7.63
2023-03-28T23:05:25.895Z,9.93
2023-03-28T23:10:30.914Z,7.95
2023-03-28T23:15:37.201Z,11.52
2023-03-28T23:20:41.297Z,10.05
2023-03-28T23:25:47.475Z,13.68
2023-03-28T23:30:53.152Z,8.55
2023-03-28T23:35:57.255Z,8.85
2023-03-28T23:41:01.860Z,9.45
2023-03-28T23:46:09.100Z,8.83
2023-03-28T23:51:13.448Z,9.73
2023-03-28T23:56:17.731Z,10.88
